sensor_id;sensor_type;location;lat;lon;timestamp;P1;durP1;ratioP1;P2;durP2;ratioP2
73980;SDS011;62348;51.412;5.436;2022-07-29T00:00:18;5.57;;;1.60;;
73980;SDS011;62348;51.412;5.436;2022-07-29T00:02:43;2.95;;;1.50;;
73980;SDS011;62348;51.412;5.436;2022-07-29T00:05:09;4.25;;;1.83;;
73980;SDS011;62348;51.412;5.436;2022-07-29T00:07:35;4.40;;;1.50;;
73980;SDS011;62348;51.412;5.436;2022-07-29T00:10:00;6.00;;;1.63;;
73980;SDS011;62348;51.412;5.436;2022-07-29T00:12:25;1.92;;;1.33;;
73980;SDS011;62348;51.412;5.436;2022-07-29T00:14:51;4.40;;;1.60;;
73980;SDS011;62348;51.412;5.436;2022-07-29T00:17:18;4.18;;;1.75;;
73980;SDS011;62348;51.412;5.436;2022-07-29T00:19:43;2.70;;;1.42;;
73980;SDS011;62348;51.412;5.436;2022-07-29T00:22:08;4.22;;;1.48;;
73980;SDS011;62348;51.412;5.436;2022-07-29T00:24:34;3.30;;;1.35;;
73980;SDS011;62348;51.412;5.436;2022-07-29T00:26:59;5.00;;;2.13;;
73980;SDS011;62348;51.412;5.436;2022-07-29T00:29:25;5.65;;;2.47;;
73980;SDS011;62348;51.412;5.436;2022-07-29T00:31:50;3.92;;;1.83;;
73980;SDS011;62348;51.412;5.436;2022-07-29T00:34:16;3.40;;;1.77;;
73980;SDS011;62348;51.412;5.436;2022-07-29T00:37:00;4.40;;;2.17;;
73980;SDS011;62348;51.412;5.436;2022-07-29T00:39:25;7.10;;;2.38;;
73980;SDS011;62348;51.412;5.436;2022-07-29T00:41:50;6.07;;;3.50;;
73980;SDS011;62348;51.412;5.436;2022-07-29T00:44:16;9.05;;;2.78;;
73980;SDS011;62348;51.412;5.436;2022-07-29T00:46:41;5.63;;;2.63;;
73980;SDS011;62348;51.412;5.436;2022-07-29T00:49:07;11.90;;;3.72;;
73980;SDS011;62348;51.412;5.436;2022-07-29T00:51:33;7.38;;;2.50;;
73980;SDS011;62348;51.412;5.436;2022-07-29T00:54:02;6.97;;;2.80;;
73980;SDS011;62348;51.412;5.436;2022-07-29T00:56:32;5.97;;;2.72;;
73980;SDS011;62348;51.412;5.436;2022-07-29T00:58:58;7.32;;;2.55;;
73980;SDS011;62348;51.412;5.436;2022-07-29T01:01:24;6.85;;;2.50;;
73980;SDS011;62348;51.412;5.436;2022-07-29T01:03:50;8.27;;;2.88;;
73980;SDS011;62348;51.412;5.436;2022-07-29T01:06:16;8.23;;;3.35;;
73980;SDS011;62348;51.412;5.436;2022-07-29T01:08:43;7.97;;;3.28;;
73980;SDS011;62348;51.412;5.436;2022-07-29T01:11:09;5.35;;;2.50;;
73980;SDS011;62348;51.412;5.436;2022-07-29T01:13:35;8.02;;;2.67;;
73980;SDS011;62348;51.412;5.436;2022-07-29T01:16:13;7.93;;;2.80;;
73980;SDS011;62348;51.412;5.436;2022-07-29T01:18:46;9.00;;;3.03;;
73980;SDS011;62348;51.412;5.436;2022-07-29T01:26:57;4.55;;;2.78;;
73980;SDS011;62348;51.412;5.436;2022-07-29T01:29:30;4.97;;;3.20;;
73980;SDS011;62348;51.412;5.436;2022-07-29T01:32:10;5.95;;;3.58;;
73980;SDS011;62348;51.412;5.436;2022-07-29T01:39:48;6.15;;;3.45;;
73980;SDS011;62348;51.412;5.436;2022-07-29T01:44:58;4.68;;;3.30;;
73980;SDS011;62348;51.412;5.436;2022-07-29T01:47:25;8.02;;;3.65;;
73980;SDS011;62348;51.412;5.436;2022-07-29T01:49:56;6.18;;;3.30;;
73980;SDS011;62348;51.412;5.436;2022-07-29T01:52:36;6.78;;;3.17;;
73980;SDS011;62348;51.412;5.436;2022-07-29T01:55:09;4.70;;;3.10;;
73980;SDS011;62348;51.412;5.436;2022-07-29T01:57:38;6.97;;;3.17;;
73980;SDS011;62348;51.412;5.436;2022-07-29T02:00:07;5.22;;;3.70;;
73980;SDS011;62348;51.412;5.436;2022-07-29T02:02:33;6.05;;;3.47;;
73980;SDS011;62348;51.412;5.436;2022-07-29T02:05:02;7.03;;;3.97;;
73980;SDS011;62348;51.412;5.436;2022-07-29T02:07:30;5.25;;;3.70;;
73980;SDS011;62348;51.412;5.436;2022-07-29T02:09:58;5.88;;;3.90;;
73980;SDS011;62348;51.412;5.436;2022-07-29T02:12:25;5.53;;;3.63;;
73980;SDS011;62348;51.412;5.436;2022-07-29T02:14:54;8.00;;;4.15;;
73980;SDS011;62348;51.412;5.436;2022-07-29T02:17:37;9.40;;;4.20;;
73980;SDS011;62348;51.412;5.436;2022-07-29T02:20:07;5.68;;;3.80;;
73980;SDS011;62348;51.412;5.436;2022-07-29T02:22:35;6.75;;;3.67;;
73980;SDS011;62348;51.412;5.436;2022-07-29T02:25:02;8.32;;;3.92;;
73980;SDS011;62348;51.412;5.436;2022-07-29T02:27:31;5.18;;;3.80;;
73980;SDS011;62348;51.412;5.436;2022-07-29T02:30:00;8.27;;;4.07;;
73980;SDS011;62348;51.412;5.436;2022-07-29T02:32:28;5.78;;;4.90;;
73980;SDS011;62348;51.412;5.436;2022-07-29T02:34:55;5.40;;;4.18;;
73980;SDS011;62348;51.412;5.436;2022-07-29T02:37:23;4.80;;;3.83;;
73980;SDS011;62348;51.412;5.436;2022-07-29T02:39:51;7.82;;;4.68;;
73980;SDS011;62348;51.412;5.436;2022-07-29T02:42:18;5.47;;;3.83;;
73980;SDS011;62348;51.412;5.436;2022-07-29T02:44:47;9.43;;;4.55;;
73980;SDS011;62348;51.412;5.436;2022-07-29T02:47:18;5.55;;;4.07;;
73980;SDS011;62348;51.412;5.436;2022-07-29T02:52:24;6.88;;;4.60;;
73980;SDS011;62348;51.412;5.436;2022-07-29T02:57:49;6.22;;;3.97;;
73980;SDS011;62348;51.412;5.436;2022-07-29T03:00:21;7.63;;;4.03;;
73980;SDS011;62348;51.412;5.436;2022-07-29T03:02:50;6.72;;;4.88;;
73980;SDS011;62348;51.412;5.436;2022-07-29T03:05:19;8.82;;;4.70;;
73980;SDS011;62348;51.412;5.436;2022-07-29T03:07:47;4.75;;;4.25;;
73980;SDS011;62348;51.412;5.436;2022-07-29T03:12:43;8.02;;;4.35;;
73980;SDS011;62348;51.412;5.436;2022-07-29T03:15:10;4.82;;;4.07;;
73980;SDS011;62348;51.412;5.436;2022-07-29T03:17:36;7.18;;;4.75;;
73980;SDS011;62348;51.412;5.436;2022-07-29T03:20:02;9.65;;;4.25;;
73980;SDS011;62348;51.412;5.436;2022-07-29T03:22:28;5.13;;;3.95;;
73980;SDS011;62348;51.412;5.436;2022-07-29T03:24:54;5.65;;;4.43;;
73980;SDS011;62348;51.412;5.436;2022-07-29T03:27:19;8.25;;;4.40;;
73980;SDS011;62348;51.412;5.436;2022-07-29T03:29:45;7.22;;;4.18;;
73980;SDS011;62348;51.412;5.436;2022-07-29T03:32:10;6.10;;;4.63;;
73980;SDS011;62348;51.412;5.436;2022-07-29T03:34:36;5.82;;;4.75;;
73980;SDS011;62348;51.412;5.436;2022-07-29T03:37:03;7.00;;;4.70;;
73980;SDS011;62348;51.412;5.436;2022-07-29T03:39:31;7.93;;;4.55;;
73980;SDS011;62348;51.412;5.436;2022-07-29T03:42:00;6.95;;;3.90;;
73980;SDS011;62348;51.412;5.436;2022-07-29T03:44:26;6.47;;;3.92;;
73980;SDS011;62348;51.412;5.436;2022-07-29T03:46:54;7.03;;;4.72;;
73980;SDS011;62348;51.412;5.436;2022-07-29T03:49:23;8.23;;;4.00;;
73980;SDS011;62348;51.412;5.436;2022-07-29T03:51:51;5.65;;;3.83;;
73980;SDS011;62348;51.412;5.436;2022-07-29T03:54:16;6.68;;;4.57;;
73980;SDS011;62348;51.412;5.436;2022-07-29T03:56:42;10.25;;;4.40;;
73980;SDS011;62348;51.412;5.436;2022-07-29T03:59:13;7.00;;;3.72;;
73980;SDS011;62348;51.412;5.436;2022-07-29T04:01:40;5.05;;;3.65;;
73980;SDS011;62348;51.412;5.436;2022-07-29T04:04:06;7.53;;;4.50;;
73980;SDS011;62348;51.412;5.436;2022-07-29T04:06:39;8.52;;;3.90;;
73980;SDS011;62348;51.412;5.436;2022-07-29T04:09:05;8.43;;;4.40;;
73980;SDS011;62348;51.412;5.436;2022-07-29T04:11:31;5.75;;;4.50;;
73980;SDS011;62348;51.412;5.436;2022-07-29T04:13:57;4.85;;;4.25;;
73980;SDS011;62348;51.412;5.436;2022-07-29T04:16:22;6.00;;;4.90;;
73980;SDS011;62348;51.412;5.436;2022-07-29T04:18:47;6.03;;;5.40;;
73980;SDS011;62348;51.412;5.436;2022-07-29T04:21:13;6.53;;;4.63;;
73980;SDS011;62348;51.412;5.436;2022-07-29T04:23:38;7.22;;;5.20;;
73980;SDS011;62348;51.412;5.436;2022-07-29T04:26:03;10.68;;;4.85;;
73980;SDS011;62348;51.412;5.436;2022-07-29T04:28:29;5.38;;;4.53;;
73980;SDS011;62348;51.412;5.436;2022-07-29T04:30:54;7.82;;;4.97;;
73980;SDS011;62348;51.412;5.436;2022-07-29T04:33:20;11.50;;;5.00;;
73980;SDS011;62348;51.412;5.436;2022-07-29T04:35:45;6.57;;;4.63;;
73980;SDS011;62348;51.412;5.436;2022-07-29T04:38:10;7.78;;;4.88;;
73980;SDS011;62348;51.412;5.436;2022-07-29T04:40:36;5.60;;;4.57;;
73980;SDS011;62348;51.412;5.436;2022-07-29T04:43:01;5.75;;;4.35;;
73980;SDS011;62348;51.412;5.436;2022-07-29T04:45:27;7.15;;;4.72;;
73980;SDS011;62348;51.412;5.436;2022-07-29T04:47:53;11.30;;;4.47;;
73980;SDS011;62348;51.412;5.436;2022-07-29T04:50:19;6.97;;;4.13;;
73980;SDS011;62348;51.412;5.436;2022-07-29T04:52:44;7.70;;;4.68;;
73980;SDS011;62348;51.412;5.436;2022-07-29T04:55:10;13.23;;;4.97;;
73980;SDS011;62348;51.412;5.436;2022-07-29T04:57:35;7.50;;;5.10;;
73980;SDS011;62348;51.412;5.436;2022-07-29T05:00:00;7.15;;;4.72;;
73980;SDS011;62348;51.412;5.436;2022-07-29T05:02:26;7.07;;;5.00;;
73980;SDS011;62348;51.412;5.436;2022-07-29T05:04:51;6.80;;;5.03;;
73980;SDS011;62348;51.412;5.436;2022-07-29T05:07:17;7.60;;;4.82;;
73980;SDS011;62348;51.412;5.436;2022-07-29T05:09:42;6.97;;;5.05;;
73980;SDS011;62348;51.412;5.436;2022-07-29T05:12:08;8.50;;;4.65;;
73980;SDS011;62348;51.412;5.436;2022-07-29T05:14:33;10.15;;;4.32;;
73980;SDS011;62348;51.412;5.436;2022-07-29T05:16:59;7.93;;;4.50;;
73980;SDS011;62348;51.412;5.436;2022-07-29T05:19:24;6.82;;;4.82;;
73980;SDS011;62348;51.412;5.436;2022-07-29T05:21:49;8.40;;;4.65;;
73980;SDS011;62348;51.412;5.436;2022-07-29T05:24:15;10.68;;;5.40;;
73980;SDS011;62348;51.412;5.436;2022-07-29T05:26:41;6.90;;;5.55;;
73980;SDS011;62348;51.412;5.436;2022-07-29T05:29:06;9.35;;;5.20;;
73980;SDS011;62348;51.412;5.436;2022-07-29T05:31:32;11.35;;;5.78;;
73980;SDS011;62348;51.412;5.436;2022-07-29T05:33:58;6.53;;;5.90;;
73980;SDS011;62348;51.412;5.436;2022-07-29T05:36:24;9.75;;;6.43;;
73980;SDS011;62348;51.412;5.436;2022-07-29T05:38:50;8.50;;;6.40;;
73980;SDS011;62348;51.412;5.436;2022-07-29T05:41:17;9.43;;;5.47;;
73980;SDS011;62348;51.412;5.436;2022-07-29T05:43:42;7.85;;;5.80;;
73980;SDS011;62348;51.412;5.436;2022-07-29T05:46:08;8.38;;;4.95;;
73980;SDS011;62348;51.412;5.436;2022-07-29T05:48:33;6.07;;;4.53;;
73980;SDS011;62348;51.412;5.436;2022-07-29T05:50:58;9.10;;;5.47;;
73980;SDS011;62348;51.412;5.436;2022-07-29T05:53:24;7.25;;;5.72;;
73980;SDS011;62348;51.412;5.436;2022-07-29T05:55:49;6.63;;;4.70;;
73980;SDS011;62348;51.412;5.436;2022-07-29T05:58:15;6.78;;;5.55;;
73980;SDS011;62348;51.412;5.436;2022-07-29T06:00:41;11.15;;;5.60;;
73980;SDS011;62348;51.412;5.436;2022-07-29T06:03:06;6.55;;;5.38;;
73980;SDS011;62348;51.412;5.436;2022-07-29T06:05:32;8.50;;;5.90;;
73980;SDS011;62348;51.412;5.436;2022-07-29T06:07:57;11.38;;;5.90;;
73980;SDS011;62348;51.412;5.436;2022-07-29T06:10:23;10.25;;;5.82;;
73980;SDS011;62348;51.412;5.436;2022-07-29T06:12:49;7.90;;;5.20;;
73980;SDS011;62348;51.412;5.436;2022-07-29T06:15:15;9.07;;;5.68;;
73980;SDS011;62348;51.412;5.436;2022-07-29T06:17:40;7.93;;;6.05;;
73980;SDS011;62348;51.412;5.436;2022-07-29T06:20:06;8.13;;;6.03;;
73980;SDS011;62348;51.412;5.436;2022-07-29T06:22:31;7.13;;;5.80;;
73980;SDS011;62348;51.412;5.436;2022-07-29T06:24:57;6.38;;;5.57;;
73980;SDS011;62348;51.412;5.436;2022-07-29T06:27:22;9.05;;;5.55;;
73980;SDS011;62348;51.412;5.436;2022-07-29T06:29:48;9.45;;;5.53;;
73980;SDS011;62348;51.412;5.436;2022-07-29T06:32:13;7.88;;;5.72;;
73980;SDS011;62348;51.412;5.436;2022-07-29T06:34:38;8.50;;;5.95;;
73980;SDS011;62348;51.412;5.436;2022-07-29T06:37:07;8.55;;;5.63;;
73980;SDS011;62348;51.412;5.436;2022-07-29T06:39:36;9.00;;;6.43;;
73980;SDS011;62348;51.412;5.436;2022-07-29T06:42:04;7.32;;;6.50;;
73980;SDS011;62348;51.412;5.436;2022-07-29T06:44:30;11.85;;;6.57;;
73980;SDS011;62348;51.412;5.436;2022-07-29T06:46:58;9.55;;;6.00;;
73980;SDS011;62348;51.412;5.436;2022-07-29T06:49:23;8.43;;;7.32;;
73980;SDS011;62348;51.412;5.436;2022-07-29T06:51:49;10.43;;;7.38;;
73980;SDS011;62348;51.412;5.436;2022-07-29T06:54:15;10.25;;;7.05;;
73980;SDS011;62348;51.412;5.436;2022-07-29T06:56:40;9.18;;;7.38;;
73980;SDS011;62348;51.412;5.436;2022-07-29T06:59:07;11.40;;;7.25;;
73980;SDS011;62348;51.412;5.436;2022-07-29T07:01:34;9.00;;;7.68;;
73980;SDS011;62348;51.412;5.436;2022-07-29T07:04:01;10.93;;;7.82;;
73980;SDS011;62348;51.412;5.436;2022-07-29T07:06:27;8.65;;;7.65;;
73980;SDS011;62348;51.412;5.436;2022-07-29T07:08:52;9.85;;;8.10;;
73980;SDS011;62348;51.412;5.436;2022-07-29T07:11:18;9.20;;;7.60;;
73980;SDS011;62348;51.412;5.436;2022-07-29T07:13:44;9.77;;;7.70;;
73980;SDS011;62348;51.412;5.436;2022-07-29T07:16:09;12.73;;;8.70;;
73980;SDS011;62348;51.412;5.436;2022-07-29T07:18:34;9.30;;;7.18;;
73980;SDS011;62348;51.412;5.436;2022-07-29T07:21:00;12.48;;;8.10;;
73980;SDS011;62348;51.412;5.436;2022-07-29T07:23:26;11.55;;;7.32;;
73980;SDS011;62348;51.412;5.436;2022-07-29T07:25:51;11.55;;;7.88;;
73980;SDS011;62348;51.412;5.436;2022-07-29T07:28:17;9.88;;;7.50;;
73980;SDS011;62348;51.412;5.436;2022-07-29T07:30:42;10.35;;;6.80;;
73980;SDS011;62348;51.412;5.436;2022-07-29T07:33:09;9.25;;;6.50;;
73980;SDS011;62348;51.412;5.436;2022-07-29T07:35:34;7.63;;;6.63;;
73980;SDS011;62348;51.412;5.436;2022-07-29T07:38:00;9.70;;;6.60;;
73980;SDS011;62348;51.412;5.436;2022-07-29T07:40:25;7.57;;;6.70;;
73980;SDS011;62348;51.412;5.436;2022-07-29T07:42:51;7.60;;;6.80;;
73980;SDS011;62348;51.412;5.436;2022-07-29T07:45:16;8.07;;;6.40;;
73980;SDS011;62348;51.412;5.436;2022-07-29T07:47:42;8.68;;;6.90;;
73980;SDS011;62348;51.412;5.436;2022-07-29T07:50:09;8.93;;;6.10;;
73980;SDS011;62348;51.412;5.436;2022-07-29T07:52:45;11.07;;;6.30;;
73980;SDS011;62348;51.412;5.436;2022-07-29T07:55:15;8.55;;;5.93;;
73980;SDS011;62348;51.412;5.436;2022-07-29T07:57:40;8.40;;;5.90;;
73980;SDS011;62348;51.412;5.436;2022-07-29T08:00:06;10.15;;;6.50;;
73980;SDS011;62348;51.412;5.436;2022-07-29T08:02:32;10.98;;;6.78;;
73980;SDS011;62348;51.412;5.436;2022-07-29T08:04:57;8.85;;;7.45;;
73980;SDS011;62348;51.412;5.436;2022-07-29T08:07:24;8.50;;;7.43;;
73980;SDS011;62348;51.412;5.436;2022-07-29T08:09:49;13.27;;;6.43;;
73980;SDS011;62348;51.412;5.436;2022-07-29T08:12:15;8.63;;;6.80;;
73980;SDS011;62348;51.412;5.436;2022-07-29T08:14:40;10.95;;;7.13;;
73980;SDS011;62348;51.412;5.436;2022-07-29T08:17:06;9.45;;;6.53;;
73980;SDS011;62348;51.412;5.436;2022-07-29T08:19:31;7.32;;;6.28;;
73980;SDS011;62348;51.412;5.436;2022-07-29T08:21:56;7.78;;;6.82;;
73980;SDS011;62348;51.412;5.436;2022-07-29T08:24:22;10.52;;;7.05;;
73980;SDS011;62348;51.412;5.436;2022-07-29T08:27:06;9.02;;;6.57;;
73980;SDS011;62348;51.412;5.436;2022-07-29T08:29:32;10.57;;;6.75;;
73980;SDS011;62348;51.412;5.436;2022-07-29T08:31:57;9.52;;;6.57;;
73980;SDS011;62348;51.412;5.436;2022-07-29T08:34:23;9.50;;;6.90;;
73980;SDS011;62348;51.412;5.436;2022-07-29T08:36:48;8.15;;;6.20;;
73980;SDS011;62348;51.412;5.436;2022-07-29T08:39:13;8.82;;;6.70;;
73980;SDS011;62348;51.412;5.436;2022-07-29T08:41:39;12.80;;;6.18;;
73980;SDS011;62348;51.412;5.436;2022-07-29T08:44:04;8.23;;;5.88;;
73980;SDS011;62348;51.412;5.436;2022-07-29T08:46:30;10.52;;;5.78;;
73980;SDS011;62348;51.412;5.436;2022-07-29T08:48:55;10.77;;;5.85;;
73980;SDS011;62348;51.412;5.436;2022-07-29T08:51:21;8.88;;;6.38;;
73980;SDS011;62348;51.412;5.436;2022-07-29T08:53:47;9.35;;;6.28;;
73980;SDS011;62348;51.412;5.436;2022-07-29T08:56:15;10.88;;;5.82;;
73980;SDS011;62348;51.412;5.436;2022-07-29T08:58:42;9.73;;;6.47;;
73980;SDS011;62348;51.412;5.436;2022-07-29T09:01:08;9.77;;;6.05;;
73980;SDS011;62348;51.412;5.436;2022-07-29T09:03:37;7.38;;;6.40;;
73980;SDS011;62348;51.412;5.436;2022-07-29T09:06:04;9.43;;;6.82;;
73980;SDS011;62348;51.412;5.436;2022-07-29T09:08:33;8.18;;;6.32;;
73980;SDS011;62348;51.412;5.436;2022-07-29T09:11:00;8.23;;;7.07;;
73980;SDS011;62348;51.412;5.436;2022-07-29T09:13:26;8.10;;;6.22;;
73980;SDS011;62348;51.412;5.436;2022-07-29T09:15:52;9.18;;;6.15;;
73980;SDS011;62348;51.412;5.436;2022-07-29T09:18:34;7.15;;;6.20;;
73980;SDS011;62348;51.412;5.436;2022-07-29T09:21:03;13.98;;;6.22;;
73980;SDS011;62348;51.412;5.436;2022-07-29T09:26:34;9.25;;;5.53;;
73980;SDS011;62348;51.412;5.436;2022-07-29T09:29:09;9.68;;;5.47;;
73980;SDS011;62348;51.412;5.436;2022-07-29T09:31:40;7.20;;;4.88;;
73980;SDS011;62348;51.412;5.436;2022-07-29T09:34:07;7.82;;;5.07;;
73980;SDS011;62348;51.412;5.436;2022-07-29T09:36:40;8.57;;;4.32;;
73980;SDS011;62348;51.412;5.436;2022-07-29T09:39:07;7.55;;;4.30;;
73980;SDS011;62348;51.412;5.436;2022-07-29T09:41:45;7.53;;;3.88;;
73980;SDS011;62348;51.412;5.436;2022-07-29T09:44:12;12.38;;;3.78;;
73980;SDS011;62348;51.412;5.436;2022-07-29T09:46:37;7.95;;;4.10;;
73980;SDS011;62348;51.412;5.436;2022-07-29T09:51:32;6.50;;;3.22;;
73980;SDS011;62348;51.412;5.436;2022-07-29T09:53:58;8.77;;;4.38;;
73980;SDS011;62348;51.412;5.436;2022-07-29T09:56:46;11.38;;;4.07;;
73980;SDS011;62348;51.412;5.436;2022-07-29T09:59:10;7.40;;;4.05;;
73980;SDS011;62348;51.412;5.436;2022-07-29T10:01:37;6.13;;;4.05;;
73980;SDS011;62348;51.412;5.436;2022-07-29T10:04:02;8.80;;;4.30;;
73980;SDS011;62348;51.412;5.436;2022-07-29T10:06:28;7.75;;;4.13;;
73980;SDS011;62348;51.412;5.436;2022-07-29T10:08:53;5.68;;;4.65;;
73980;SDS011;62348;51.412;5.436;2022-07-29T10:11:19;10.05;;;4.45;;
73980;SDS011;62348;51.412;5.436;2022-07-29T10:13:45;10.25;;;4.47;;
73980;SDS011;62348;51.412;5.436;2022-07-29T10:16:13;6.22;;;3.90;;
73980;SDS011;62348;51.412;5.436;2022-07-29T10:18:39;6.57;;;4.35;;
73980;SDS011;62348;51.412;5.436;2022-07-29T10:21:06;6.15;;;3.72;;
73980;SDS011;62348;51.412;5.436;2022-07-29T10:23:32;10.50;;;3.38;;
73980;SDS011;62348;51.412;5.436;2022-07-29T10:25:59;7.20;;;3.90;;
73980;SDS011;62348;51.412;5.436;2022-07-29T10:28:25;6.20;;;3.80;;
73980;SDS011;62348;51.412;5.436;2022-07-29T10:30:51;8.45;;;3.25;;
73980;SDS011;62348;51.412;5.436;2022-07-29T10:44:01;5.57;;;2.70;;
73980;SDS011;62348;51.412;5.436;2022-07-29T10:46:34;4.57;;;2.65;;
73980;SDS011;62348;51.412;5.436;2022-07-29T10:59:44;5.75;;;3.58;;
73980;SDS011;62348;51.412;5.436;2022-07-29T11:05:00;3.67;;;3.08;;
73980;SDS011;62348;51.412;5.436;2022-07-29T11:07:26;6.43;;;2.80;;
73980;SDS011;62348;51.412;5.436;2022-07-29T11:15:07;6.03;;;3.70;;
73980;SDS011;62348;51.412;5.436;2022-07-29T11:23:40;7.95;;;2.97;;
73980;SDS011;62348;51.412;5.436;2022-07-29T11:26:14;5.90;;;2.55;;
73980;SDS011;62348;51.412;5.436;2022-07-29T11:31:38;3.90;;;2.65;;
73980;SDS011;62348;51.412;5.436;2022-07-29T11:34:25;5.35;;;2.50;;
73980;SDS011;62348;51.412;5.436;2022-07-29T11:39:31;7.07;;;3.03;;
73980;SDS011;62348;51.412;5.436;2022-07-29T11:44:58;3.75;;;3.10;;
73980;SDS011;62348;51.412;5.436;2022-07-29T11:47:32;2.95;;;2.13;;
73980;SDS011;62348;51.412;5.436;2022-07-29T11:50:00;6.13;;;2.90;;
73980;SDS011;62348;51.412;5.436;2022-07-29T11:52:34;3.97;;;1.95;;
73980;SDS011;62348;51.412;5.436;2022-07-29T11:55:12;5.68;;;2.05;;
73980;SDS011;62348;51.412;5.436;2022-07-29T11:57:47;2.75;;;1.95;;
73980;SDS011;62348;51.412;5.436;2022-07-29T12:00:22;4.20;;;2.13;;
73980;SDS011;62348;51.412;5.436;2022-07-29T12:02:49;4.95;;;2.03;;
73980;SDS011;62348;51.412;5.436;2022-07-29T12:05:15;3.67;;;2.28;;
73980;SDS011;62348;51.412;5.436;2022-07-29T12:07:41;6.05;;;1.75;;
73980;SDS011;62348;51.412;5.436;2022-07-29T12:10:06;5.15;;;2.35;;
73980;SDS011;62348;51.412;5.436;2022-07-29T12:12:33;3.75;;;1.85;;
73980;SDS011;62348;51.412;5.436;2022-07-29T12:17:42;3.72;;;2.13;;
73980;SDS011;62348;51.412;5.436;2022-07-29T12:20:08;5.43;;;2.00;;
73980;SDS011;62348;51.412;5.436;2022-07-29T12:22:35;4.32;;;2.22;;
73980;SDS011;62348;51.412;5.436;2022-07-29T12:25:03;3.83;;;1.95;;
73980;SDS011;62348;51.412;5.436;2022-07-29T12:27:30;6.38;;;2.08;;
73980;SDS011;62348;51.412;5.436;2022-07-29T12:29:59;3.47;;;2.10;;
73980;SDS011;62348;51.412;5.436;2022-07-29T12:32:31;2.55;;;1.85;;
73980;SDS011;62348;51.412;5.436;2022-07-29T12:35:04;2.78;;;1.65;;
73980;SDS011;62348;51.412;5.436;2022-07-29T12:37:32;3.55;;;1.90;;
73980;SDS011;62348;51.412;5.436;2022-07-29T12:40:03;4.20;;;2.00;;
73980;SDS011;62348;51.412;5.436;2022-07-29T12:42:29;4.10;;;1.70;;
73980;SDS011;62348;51.412;5.436;2022-07-29T12:44:55;4.47;;;2.45;;
73980;SDS011;62348;51.412;5.436;2022-07-29T12:47:21;3.65;;;2.10;;
73980;SDS011;62348;51.412;5.436;2022-07-29T12:49:47;3.08;;;1.88;;
73980;SDS011;62348;51.412;5.436;2022-07-29T12:52:27;4.15;;;2.10;;
73980;SDS011;62348;51.412;5.436;2022-07-29T12:54:53;8.50;;;1.95;;
73980;SDS011;62348;51.412;5.436;2022-07-29T12:57:18;3.75;;;1.90;;
73980;SDS011;62348;51.412;5.436;2022-07-29T12:59:44;4.18;;;1.92;;
73980;SDS011;62348;51.412;5.436;2022-07-29T13:02:22;4.93;;;1.92;;
73980;SDS011;62348;51.412;5.436;2022-07-29T13:04:57;3.97;;;2.15;;
73980;SDS011;62348;51.412;5.436;2022-07-29T13:07:28;5.03;;;2.05;;
73980;SDS011;62348;51.412;5.436;2022-07-29T13:09:57;3.88;;;2.30;;
73980;SDS011;62348;51.412;5.436;2022-07-29T13:12:37;3.58;;;2.30;;
73980;SDS011;62348;51.412;5.436;2022-07-29T13:15:13;4.78;;;1.90;;
73980;SDS011;62348;51.412;5.436;2022-07-29T13:17:40;4.75;;;1.75;;
73980;SDS011;62348;51.412;5.436;2022-07-29T13:20:08;3.75;;;1.95;;
73980;SDS011;62348;51.412;5.436;2022-07-29T13:22:37;4.20;;;2.58;;
73980;SDS011;62348;51.412;5.436;2022-07-29T13:25:04;5.13;;;1.88;;
73980;SDS011;62348;51.412;5.436;2022-07-29T13:27:32;3.10;;;1.85;;
73980;SDS011;62348;51.412;5.436;2022-07-29T13:29:59;6.63;;;2.20;;
73980;SDS011;62348;51.412;5.436;2022-07-29T13:32:26;7.60;;;2.00;;
73980;SDS011;62348;51.412;5.436;2022-07-29T13:34:53;4.32;;;1.70;;
73980;SDS011;62348;51.412;5.436;2022-07-29T13:37:20;4.05;;;2.00;;
73980;SDS011;62348;51.412;5.436;2022-07-29T13:39:45;3.70;;;1.98;;
73980;SDS011;62348;51.412;5.436;2022-07-29T13:42:12;5.15;;;2.00;;
73980;SDS011;62348;51.412;5.436;2022-07-29T13:44:38;3.15;;;2.20;;
73980;SDS011;62348;51.412;5.436;2022-07-29T13:47:05;5.28;;;2.20;;
73980;SDS011;62348;51.412;5.436;2022-07-29T13:49:33;4.65;;;2.20;;
73980;SDS011;62348;51.412;5.436;2022-07-29T13:51:59;4.57;;;2.25;;
73980;SDS011;62348;51.412;5.436;2022-07-29T13:54:24;6.88;;;2.35;;
73980;SDS011;62348;51.412;5.436;2022-07-29T13:56:50;7.90;;;2.20;;
73980;SDS011;62348;51.412;5.436;2022-07-29T13:59:16;4.45;;;2.30;;
73980;SDS011;62348;51.412;5.436;2022-07-29T14:01:42;3.95;;;1.98;;
73980;SDS011;62348;51.412;5.436;2022-07-29T14:04:08;6.00;;;2.30;;
73980;SDS011;62348;51.412;5.436;2022-07-29T14:06:34;4.53;;;2.22;;
73980;SDS011;62348;51.412;5.436;2022-07-29T14:09:00;3.70;;;2.05;;
73980;SDS011;62348;51.412;5.436;2022-07-29T14:11:25;5.13;;;2.10;;
73980;SDS011;62348;51.412;5.436;2022-07-29T14:13:51;6.47;;;2.67;;
73980;SDS011;62348;51.412;5.436;2022-07-29T14:16:16;4.05;;;1.92;;
73980;SDS011;62348;51.412;5.436;2022-07-29T14:18:42;8.60;;;2.45;;
73980;SDS011;62348;51.412;5.436;2022-07-29T14:21:07;5.03;;;1.92;;
73980;SDS011;62348;51.412;5.436;2022-07-29T14:23:33;4.45;;;2.20;;
73980;SDS011;62348;51.412;5.436;2022-07-29T14:25:58;4.50;;;2.40;;
73980;SDS011;62348;51.412;5.436;2022-07-29T14:28:24;4.53;;;1.92;;
73980;SDS011;62348;51.412;5.436;2022-07-29T14:30:50;6.60;;;2.15;;
73980;SDS011;62348;51.412;5.436;2022-07-29T14:33:15;4.75;;;1.98;;
73980;SDS011;62348;51.412;5.436;2022-07-29T14:35:40;3.47;;;1.73;;
73980;SDS011;62348;51.412;5.436;2022-07-29T14:38:06;4.28;;;1.80;;
73980;SDS011;62348;51.412;5.436;2022-07-29T14:40:31;2.90;;;1.83;;
73980;SDS011;62348;51.412;5.436;2022-07-29T14:42:57;4.30;;;1.90;;
73980;SDS011;62348;51.412;5.436;2022-07-29T14:45:22;3.55;;;1.90;;
73980;SDS011;62348;51.412;5.436;2022-07-29T14:47:48;4.07;;;1.40;;
73980;SDS011;62348;51.412;5.436;2022-07-29T14:50:15;3.55;;;2.00;;
73980;SDS011;62348;51.412;5.436;2022-07-29T14:52:40;4.07;;;1.98;;
73980;SDS011;62348;51.412;5.436;2022-07-29T14:55:06;4.82;;;2.10;;
73980;SDS011;62348;51.412;5.436;2022-07-29T14:57:31;9.10;;;2.80;;
73980;SDS011;62348;51.412;5.436;2022-07-29T14:59:57;4.70;;;2.00;;
73980;SDS011;62348;51.412;5.436;2022-07-29T15:02:22;2.20;;;1.67;;
73980;SDS011;62348;51.412;5.436;2022-07-29T15:04:48;5.13;;;2.10;;
73980;SDS011;62348;51.412;5.436;2022-07-29T15:07:14;6.65;;;2.17;;
73980;SDS011;62348;51.412;5.436;2022-07-29T15:09:40;7.63;;;1.77;;
73980;SDS011;62348;51.412;5.436;2022-07-29T15:12:06;4.07;;;1.70;;
73980;SDS011;62348;51.412;5.436;2022-07-29T15:14:32;5.60;;;1.70;;
73980;SDS011;62348;51.412;5.436;2022-07-29T15:16:58;3.92;;;1.98;;
73980;SDS011;62348;51.412;5.436;2022-07-29T15:19:23;3.80;;;1.73;;
73980;SDS011;62348;51.412;5.436;2022-07-29T15:21:49;4.82;;;1.67;;
73980;SDS011;62348;51.412;5.436;2022-07-29T15:24:15;3.25;;;1.73;;
73980;SDS011;62348;51.412;5.436;2022-07-29T15:26:41;3.20;;;1.77;;
73980;SDS011;62348;51.412;5.436;2022-07-29T15:29:07;3.35;;;1.80;;
73980;SDS011;62348;51.412;5.436;2022-07-29T15:31:32;3.95;;;2.10;;
73980;SDS011;62348;51.412;5.436;2022-07-29T15:33:59;3.13;;;1.65;;
73980;SDS011;62348;51.412;5.436;2022-07-29T15:36:24;3.13;;;1.60;;
73980;SDS011;62348;51.412;5.436;2022-07-29T15:38:53;2.92;;;1.67;;
73980;SDS011;62348;51.412;5.436;2022-07-29T15:41:19;5.20;;;2.00;;
73980;SDS011;62348;51.412;5.436;2022-07-29T15:43:46;4.63;;;2.05;;
73980;SDS011;62348;51.412;5.436;2022-07-29T15:46:13;3.28;;;1.90;;
73980;SDS011;62348;51.412;5.436;2022-07-29T15:48:58;4.25;;;2.00;;
73980;SDS011;62348;51.412;5.436;2022-07-29T15:51:23;3.08;;;1.45;;
73980;SDS011;62348;51.412;5.436;2022-07-29T15:53:49;3.15;;;2.00;;
73980;SDS011;62348;51.412;5.436;2022-07-29T15:56:14;6.20;;;2.30;;
73980;SDS011;62348;51.412;5.436;2022-07-29T15:58:40;3.70;;;1.75;;